sensor_id;sensor_type;location;lat;lon;timestamp;P1;durP1;ratioP1;P2;durP2;ratioP2
4174;SDS011;2101;48.290;14.382;2023-03-01T00:01:00;24.83;;;6.90;;
4174;SDS011;2101;48.290;14.382;2023-03-01T00:03:28;20.23;;;4.77;;
4174;SDS011;2101;48.290;14.382;2023-03-01T00:05:57;19.83;;;3.80;;
4174;SDS011;2101;48.290;14.382;2023-03-01T00:08:29;20.00;;;5.20;;
4174;SDS011;2101;48.290;14.382;2023-03-01T00:13:29;20.00;;;5.57;;
4174;SDS011;2101;48.290;14.382;2023-03-01T00:16:11;22.90;;;6.20;;
4174;SDS011;2101;48.290;14.382;2023-03-01T00:19:11;19.53;;;5.80;;
4174;SDS011;2101;48.290;14.382;2023-03-01T00:21:45;23.23;;;5.93;;
4174;SDS011;2101;48.290;14.382;2023-03-01T00:24:17;22.50;;;5.90;;
4174;SDS011;2101;48.290;14.382;2023-03-01T00:26:52;18.77;;;5.57;;
4174;SDS011;2101;48.290;14.382;2023-03-01T00:29:22;15.93;;;4.07;;
4174;SDS011;2101;48.290;14.382;2023-03-01T00:31:59;21.57;;;6.27;;
4174;SDS011;2101;48.290;14.382;2023-03-01T00:34:26;21.13;;;5.13;;
4174;SDS011;2101;48.290;14.382;2023-03-01T00:36:55;21.50;;;5.93;;
4174;SDS011;2101;48.290;14.382;2023-03-01T00:39:41;20.60;;;6.33;;
4174;SDS011;2101;48.290;14.382;2023-03-01T00:42:10;29.93;;;6.83;;
4174;SDS011;2101;48.290;14.382;2023-03-01T00:44:47;23.83;;;6.40;;
4174;SDS011;2101;48.290;14.382;2023-03-01T00:47:16;20.57;;;5.80;;
4174;SDS011;2101;48.290;14.382;2023-03-01T00:49:44;24.07;;;5.70;;
4174;SDS011;2101;48.290;14.382;2023-03-01T00:52:10;21.00;;;6.30;;
4174;SDS011;2101;48.290;14.382;2023-03-01T00:54:42;20.73;;;5.70;;
4174;SDS011;2101;48.290;14.382;2023-03-01T00:57:19;17.53;;;4.77;;
4174;SDS011;2101;48.290;14.382;2023-03-01T00:59:59;19.50;;;5.33;;
4174;SDS011;2101;48.290;14.382;2023-03-01T01:03:02;23.93;;;5.97;;
4174;SDS011;2101;48.290;14.382;2023-03-01T01:05:47;22.33;;;6.27;;
4174;SDS011;2101;48.290;14.382;2023-03-01T01:08:13;24.70;;;6.43;;
4174;SDS011;2101;48.290;14.382;2023-03-01T01:10:39;26.60;;;5.80;;
4174;SDS011;2101;48.290;14.382;2023-03-01T01:13:19;22.17;;;5.73;;
4174;SDS011;2101;48.290;14.382;2023-03-01T01:15:50;26.10;;;6.47;;
4174;SDS011;2101;48.290;14.382;2023-03-01T01:18:16;18.20;;;5.03;;
4174;SDS011;2101;48.290;14.382;2023-03-01T01:20:44;20.60;;;6.30;;
4174;SDS011;2101;48.290;14.382;2023-03-01T01:23:11;24.20;;;5.60;;
4174;SDS011;2101;48.290;14.382;2023-03-01T01:25:37;24.70;;;6.73;;
4174;SDS011;2101;48.290;14.382;2023-03-01T01:28:15;20.00;;;5.93;;
4174;SDS011;2101;48.290;14.382;2023-03-01T01:30:45;24.53;;;6.93;;
4174;SDS011;2101;48.290;14.382;2023-03-01T01:33:39;19.77;;;6.17;;
4174;SDS011;2101;48.290;14.382;2023-03-01T01:36:12;18.90;;;5.70;;
4174;SDS011;2101;48.290;14.382;2023-03-01T01:38:41;22.83;;;6.00;;
4174;SDS011;2101;48.290;14.382;2023-03-01T01:41:11;21.70;;;6.50;;
4174;SDS011;2101;48.290;14.382;2023-03-01T01:44:26;20.83;;;6.00;;
4174;SDS011;2101;48.290;14.382;2023-03-01T01:47:20;17.43;;;5.20;;
4174;SDS011;2101;48.290;14.382;2023-03-01T01:50:00;25.03;;;6.33;;
4174;SDS011;2101;48.290;14.382;2023-03-01T01:52:29;22.70;;;6.90;;
4174;SDS011;2101;48.290;14.382;2023-03-01T01:55:17;27.27;;;5.50;;
4174;SDS011;2101;48.290;14.382;2023-03-01T01:58:04;24.10;;;6.13;;
4174;SDS011;2101;48.290;14.382;2023-03-01T02:00:52;18.57;;;5.67;;
4174;SDS011;2101;48.290;14.382;2023-03-01T02:03:56;22.73;;;5.73;;
4174;SDS011;2101;48.290;14.382;2023-03-01T02:06:51;21.90;;;6.20;;
4174;SDS011;2101;48.290;14.382;2023-03-01T02:09:43;27.63;;;6.30;;
4174;SDS011;2101;48.290;14.382;2023-03-01T02:12:30;25.33;;;6.57;;
4174;SDS011;2101;48.290;14.382;2023-03-01T02:15:16;23.50;;;7.13;;
4174;SDS011;2101;48.290;14.382;2023-03-01T02:17:45;20.33;;;5.40;;
4174;SDS011;2101;48.290;14.382;2023-03-01T02:23:40;20.33;;;6.30;;
4174;SDS011;2101;48.290;14.382;2023-03-01T02:29:00;21.60;;;6.20;;
4174;SDS011;2101;48.290;14.382;2023-03-01T02:31:27;26.07;;;7.93;;
4174;SDS011;2101;48.290;14.382;2023-03-01T02:34:27;21.83;;;7.30;;
4174;SDS011;2101;48.290;14.382;2023-03-01T02:37:04;24.40;;;6.67;;
4174;SDS011;2101;48.290;14.382;2023-03-01T02:39:35;26.10;;;7.40;;
4174;SDS011;2101;48.290;14.382;2023-03-01T02:42:07;18.73;;;5.97;;
4174;SDS011;2101;48.290;14.382;2023-03-01T02:44:37;21.93;;;6.50;;
4174;SDS011;2101;48.290;14.382;2023-03-01T02:47:05;21.63;;;6.60;;
4174;SDS011;2101;48.290;14.382;2023-03-01T02:49:40;15.90;;;3.97;;
4174;SDS011;2101;48.290;14.382;2023-03-01T02:57:36;30.53;;;7.20;;
4174;SDS011;2101;48.290;14.382;2023-03-01T03:00:20;27.77;;;6.57;;
4174;SDS011;2101;48.290;14.382;2023-03-01T03:08:57;20.77;;;5.97;;
4174;SDS011;2101;48.290;14.382;2023-03-01T03:11:24;22.33;;;6.43;;
4174;SDS011;2101;48.290;14.382;2023-03-01T03:14:01;24.13;;;6.73;;
4174;SDS011;2101;48.290;14.382;2023-03-01T03:16:46;27.63;;;7.20;;
4174;SDS011;2101;48.290;14.382;2023-03-01T03:19:53;29.47;;;7.47;;
4174;SDS011;2101;48.290;14.382;2023-03-01T03:22:31;23.10;;;6.73;;
4174;SDS011;2101;48.290;14.382;2023-03-01T03:25:34;35.53;;;7.00;;
4174;SDS011;2101;48.290;14.382;2023-03-01T03:28:05;32.03;;;7.57;;
4174;SDS011;2101;48.290;14.382;2023-03-01T03:31:06;27.03;;;6.90;;
4174;SDS011;2101;48.290;14.382;2023-03-01T03:33:41;22.00;;;6.40;;
4174;SDS011;2101;48.290;14.382;2023-03-01T03:36:16;29.37;;;7.37;;
4174;SDS011;2101;48.290;14.382;2023-03-01T03:38:59;23.13;;;6.53;;
4174;SDS011;2101;48.290;14.382;2023-03-01T03:41:48;20.83;;;6.20;;
4174;SDS011;2101;48.290;14.382;2023-03-01T03:44:36;21.37;;;5.50;;
4174;SDS011;2101;48.290;14.382;2023-03-01T03:47:27;20.80;;;6.20;;
4174;SDS011;2101;48.290;14.382;2023-03-01T03:50:34;25.63;;;6.40;;
4174;SDS011;2101;48.290;14.382;2023-03-01T03:53:45;26.80;;;6.23;;
4174;SDS011;2101;48.290;14.382;2023-03-01T03:56:33;23.17;;;6.10;;
4174;SDS011;2101;48.290;14.382;2023-03-01T03:59:08;24.77;;;6.30;;
4174;SDS011;2101;48.290;14.382;2023-03-01T04:01:38;26.17;;;7.30;;
4174;SDS011;2101;48.290;14.382;2023-03-01T04:04:29;25.23;;;6.90;;
4174;SDS011;2101;48.290;14.382;2023-03-01T04:06:57;23.17;;;6.70;;
4174;SDS011;2101;48.290;14.382;2023-03-01T04:12:31;22.20;;;6.30;;
4174;SDS011;2101;48.290;14.382;2023-03-01T04:22:00;25.80;;;6.73;;
4174;SDS011;2101;48.290;14.382;2023-03-01T04:25:14;21.90;;;6.87;;
4174;SDS011;2101;48.290;14.382;2023-03-01T04:31:08;25.40;;;7.80;;
4174;SDS011;2101;48.290;14.382;2023-03-01T04:40:18;28.67;;;7.13;;
4174;SDS011;2101;48.290;14.382;2023-03-01T04:42:53;22.33;;;6.47;;
4174;SDS011;2101;48.290;14.382;2023-03-01T04:46:08;23.60;;;6.50;;
4174;SDS011;2101;48.290;14.382;2023-03-01T04:48:59;21.87;;;6.77;;
4174;SDS011;2101;48.290;14.382;2023-03-01T04:51:48;22.73;;;6.93;;
4174;SDS011;2101;48.290;14.382;2023-03-01T04:54:29;27.80;;;7.10;;
4174;SDS011;2101;48.290;14.382;2023-03-01T04:57:03;24.57;;;6.40;;
4174;SDS011;2101;48.290;14.382;2023-03-01T04:59:50;26.40;;;7.30;;
4174;SDS011;2101;48.290;14.382;2023-03-01T05:02:23;17.77;;;5.17;;
4174;SDS011;2101;48.290;14.382;2023-03-01T05:05:07;20.43;;;6.47;;
4174;SDS011;2101;48.290;14.382;2023-03-01T07:28:41;30.57;;;8.90;;
4174;SDS011;2101;48.290;14.382;2023-03-01T07:31:08;26.13;;;6.77;;
4174;SDS011;2101;48.290;14.382;2023-03-01T07:36:09;27.07;;;6.70;;
4174;SDS011;2101;48.290;14.382;2023-03-01T07:38:36;25.53;;;7.40;;
4174;SDS011;2101;48.290;14.382;2023-03-01T07:41:03;25.30;;;7.30;;
4174;SDS011;2101;48.290;14.382;2023-03-01T07:43:30;24.00;;;7.70;;
4174;SDS011;2101;48.290;14.382;2023-03-01T07:46:00;25.43;;;6.37;;
4174;SDS011;2101;48.290;14.382;2023-03-01T07:48:27;20.47;;;6.60;;
4174;SDS011;2101;48.290;14.382;2023-03-01T07:50:53;44.83;;;8.43;;
4174;SDS011;2101;48.290;14.382;2023-03-01T07:53:20;29.27;;;7.07;;
4174;SDS011;2101;48.290;14.382;2023-03-01T07:55:46;26.17;;;7.40;;
4174;SDS011;2101;48.290;14.382;2023-03-01T07:58:12;25.70;;;7.70;;
4174;SDS011;2101;48.290;14.382;2023-03-01T08:00:38;31.93;;;6.20;;
4174;SDS011;2101;48.290;14.382;2023-03-01T08:03:04;29.07;;;6.77;;
4174;SDS011;2101;48.290;14.382;2023-03-01T08:05:30;23.50;;;7.73;;
4174;SDS011;2101;48.290;14.382;2023-03-01T08:07:57;25.73;;;7.20;;
4174;SDS011;2101;48.290;14.382;2023-03-01T08:10:24;26.23;;;6.93;;
4174;SDS011;2101;48.290;14.382;2023-03-01T08:12:53;23.33;;;6.53;;
4174;SDS011;2101;48.290;14.382;2023-03-01T08:15:19;25.80;;;6.80;;
4174;SDS011;2101;48.290;14.382;2023-03-01T08:17:45;27.90;;;7.10;;
4174;SDS011;2101;48.290;14.382;2023-03-01T08:20:11;24.60;;;7.00;;
4174;SDS011;2101;48.290;14.382;2023-03-01T08:22:38;24.90;;;7.10;;
4174;SDS011;2101;48.290;14.382;2023-03-01T08:25:04;27.57;;;6.73;;
4174;SDS011;2101;48.290;14.382;2023-03-01T08:27:31;23.33;;;7.00;;
4174;SDS011;2101;48.290;14.382;2023-03-01T11:38:24;14.63;;;2.70;;
4174;SDS011;2101;48.290;14.382;2023-03-01T11:43:35;15.13;;;3.07;;
4174;SDS011;2101;48.290;14.382;2023-03-01T12:09:26;16.83;;;2.50;;
4174;SDS011;2101;48.290;14.382;2023-03-01T12:12:01;16.80;;;3.80;;
4174;SDS011;2101;48.290;14.382;2023-03-01T12:20:02;17.50;;;3.70;;
4174;SDS011;2101;48.290;14.382;2023-03-01T12:28:09;25.10;;;5.83;;
4174;SDS011;2101;48.290;14.382;2023-03-01T12:31:29;20.40;;;4.80;;
4174;SDS011;2101;48.290;14.382;2023-03-01T12:34:00;20.90;;;5.47;;
4174;SDS011;2101;48.290;14.382;2023-03-01T12:36:44;18.23;;;3.80;;
4174;SDS011;2101;48.290;14.382;2023-03-01T12:42:14;20.27;;;4.67;;
4174;SDS011;2101;48.290;14.382;2023-03-01T12:45:02;20.00;;;4.20;;
4174;SDS011;2101;48.290;14.382;2023-03-01T12:50:19;25.97;;;5.57;;
4174;SDS011;2101;48.290;14.382;2023-03-01T12:52:47;25.80;;;4.57;;
4174;SDS011;2101;48.290;14.382;2023-03-01T12:55:38;27.30;;;4.57;;
4174;SDS011;2101;48.290;14.382;2023-03-01T13:06:25;23.80;;;5.07;;
4174;SDS011;2101;48.290;14.382;2023-03-01T13:12:01;18.80;;;4.03;;
4174;SDS011;2101;48.290;14.382;2023-03-01T13:14:36;24.67;;;5.50;;
4174;SDS011;2101;48.290;14.382;2023-03-01T13:17:02;20.37;;;4.90;;
4174;SDS011;2101;48.290;14.382;2023-03-01T13:19:29;20.87;;;4.50;;
4174;SDS011;2101;48.290;14.382;2023-03-01T13:22:26;24.37;;;5.40;;
4174;SDS011;2101;48.290;14.382;2023-03-01T13:25:00;21.53;;;5.17;;
4174;SDS011;2101;48.290;14.382;2023-03-01T13:27:27;22.40;;;5.20;;
4174;SDS011;2101;48.290;14.382;2023-03-01T13:29:57;21.23;;;4.80;;
4174;SDS011;2101;48.290;14.382;2023-03-01T13:32:32;20.43;;;4.43;;
4174;SDS011;2101;48.290;14.382;2023-03-01T13:37:45;24.77;;;5.10;;
4174;SDS011;2101;48.290;14.382;2023-03-01T13:42:47;17.63;;;4.03;;
4174;SDS011;2101;48.290;14.382;2023-03-01T13:51:27;16.20;;;3.30;;
4174;SDS011;2101;48.290;14.382;2023-03-01T13:53:54;24.37;;;4.53;;
4174;SDS011;2101;48.290;14.382;2023-03-01T13:56:24;20.57;;;4.93;;
4174;SDS011;2101;48.290;14.382;2023-03-01T14:01:30;19.30;;;4.70;;
4174;SDS011;2101;48.290;14.382;2023-03-01T14:03:57;23.03;;;4.57;;
4174;SDS011;2101;48.290;14.382;2023-03-01T14:06:26;19.50;;;3.30;;
4174;SDS011;2101;48.290;14.382;2023-03-01T14:09:00;24.17;;;4.83;;
4174;SDS011;2101;48.290;14.382;2023-03-01T14:11:50;18.17;;;3.67;;
4174;SDS011;2101;48.290;14.382;2023-03-01T14:19:55;17.27;;;3.30;;
4174;SDS011;2101;48.290;14.382;2023-03-01T14:22:55;23.43;;;4.97;;
4174;SDS011;2101;48.290;14.382;2023-03-01T14:25:33;18.80;;;3.90;;
4174;SDS011;2101;48.290;14.382;2023-03-01T14:28:02;25.33;;;5.00;;
4174;SDS011;2101;48.290;14.382;2023-03-01T14:30:38;20.63;;;3.67;;
4174;SDS011;2101;48.290;14.382;2023-03-01T14:33:17;20.53;;;3.50;;
4174;SDS011;2101;48.290;14.382;2023-03-01T14:35:56;18.63;;;3.57;;
4174;SDS011;2101;48.290;14.382;2023-03-01T14:38:23;18.43;;;3.50;;
4174;SDS011;2101;48.290;14.382;2023-03-01T14:40:54;22.70;;;4.10;;
4174;SDS011;2101;48.290;14.382;2023-03-01T14:43:22;18.47;;;4.63;;
4174;SDS011;2101;48.290;14.382;2023-03-01T14:45:51;19.17;;;4.07;;
4174;SDS011;2101;48.290;14.382;2023-03-01T14:48:21;19.23;;;4.37;;
4174;SDS011;2101;48.290;14.382;2023-03-01T14:50:47;20.50;;;4.13;;
4174;SDS011;2101;48.290;14.382;2023-03-01T14:53:21;18.20;;;3.60;;
4174;SDS011;2101;48.290;14.382;2023-03-01T14:55:50;20.10;;;4.60;;
4174;SDS011;2101;48.290;14.382;2023-03-01T14:58:19;23.10;;;4.07;;
4174;SDS011;2101;48.290;14.382;2023-03-01T15:01:02;18.17;;;3.30;;
4174;SDS011;2101;48.290;14.382;2023-03-01T15:06:03;22.50;;;4.60;;
4174;SDS011;2101;48.290;14.382;2023-03-01T15:08:31;17.90;;;3.57;;
4174;SDS011;2101;48.290;14.382;2023-03-01T15:13:47;19.33;;;3.33;;
4174;SDS011;2101;48.290;14.382;2023-03-01T15:16:14;19.67;;;4.33;;
4174;SDS011;2101;48.290;14.382;2023-03-01T15:18:51;18.80;;;3.17;;
4174;SDS011;2101;48.290;14.382;2023-03-01T15:21:20;19.00;;;4.30;;
4174;SDS011;2101;48.290;14.382;2023-03-01T15:23:54;21.70;;;4.70;;
4174;SDS011;2101;48.290;14.382;2023-03-01T15:26:31;20.57;;;3.70;;
4174;SDS011;2101;48.290;14.382;2023-03-01T15:28:59;17.73;;;3.83;;
4174;SDS011;2101;48.290;14.382;2023-03-01T15:31:35;19.03;;;4.30;;
4174;SDS011;2101;48.290;14.382;2023-03-01T15:40:02;26.73;;;4.17;;
4174;SDS011;2101;48.290;14.382;2023-03-01T15:45:10;24.47;;;5.40;;
4174;SDS011;2101;48.290;14.382;2023-03-01T15:51:40;19.97;;;4.70;;
4174;SDS011;2101;48.290;14.382;2023-03-01T15:54:35;20.30;;;5.10;;
4174;SDS011;2101;48.290;14.382;2023-03-01T15:57:03;22.00;;;4.50;;
4174;SDS011;2101;48.290;14.382;2023-03-01T15:59:34;26.03;;;5.80;;
4174;SDS011;2101;48.290;14.382;2023-03-01T16:02:30;24.70;;;6.10;;
4174;SDS011;2101;48.290;14.382;2023-03-01T16:08:48;19.50;;;5.63;;
4174;SDS011;2101;48.290;14.382;2023-03-01T16:14:42;27.03;;;5.43;;
4174;SDS011;2101;48.290;14.382;2023-03-01T18:40:57;26.70;;;6.80;;
4174;SDS011;2101;48.290;14.382;2023-03-01T18:43:23;29.83;;;8.07;;
4174;SDS011;2101;48.290;14.382;2023-03-01T18:45:56;24.30;;;7.07;;
4174;SDS011;2101;48.290;14.382;2023-03-01T18:48:22;26.83;;;6.87;;
4174;SDS011;2101;48.290;14.382;2023-03-01T18:50:49;23.30;;;7.17;;
4174;SDS011;2101;48.290;14.382;2023-03-01T18:53:15;29.70;;;7.13;;
4174;SDS011;2101;48.290;14.382;2023-03-01T18:55:41;31.03;;;7.97;;
4174;SDS011;2101;48.290;14.382;2023-03-01T18:58:08;28.23;;;6.90;;
4174;SDS011;2101;48.290;14.382;2023-03-01T19:00:35;20.80;;;6.53;;
4174;SDS011;2101;48.290;14.382;2023-03-01T19:03:02;26.27;;;6.53;;
4174;SDS011;2101;48.290;14.382;2023-03-01T19:05:30;25.60;;;6.83;;
4174;SDS011;2101;48.290;14.382;2023-03-01T19:07:59;26.40;;;8.00;;
4174;SDS011;2101;48.290;14.382;2023-03-01T19:10:27;29.80;;;7.50;;
4174;SDS011;2101;48.290;14.382;2023-03-01T19:12:53;27.20;;;7.23;;
4174;SDS011;2101;48.290;14.382;2023-03-01T19:15:19;25.07;;;7.10;;
4174;SDS011;2101;48.290;14.382;2023-03-01T19:17:47;35.97;;;8.80;;
4174;SDS011;2101;48.290;14.382;2023-03-01T19:20:15;24.30;;;6.93;;
4174;SDS011;2101;48.290;14.382;2023-03-01T19:22:44;28.17;;;6.77;;
4174;SDS011;2101;48.290;14.382;2023-03-01T19:25:10;25.50;;;7.37;;
4174;SDS011;2101;48.290;14.382;2023-03-01T19:32:43;24.00;;;7.30;;
4174;SDS011;2101;48.290;14.382;2023-03-01T19:35:10;26.97;;;7.73;;
4174;SDS011;2101;48.290;14.382;2023-03-01T19:37:38;21.80;;;6.97;;
4174;SDS011;2101;48.290;14.382;2023-03-01T19:40:05;28.27;;;7.20;;
4174;SDS011;2101;48.290;14.382;2023-03-01T19:47:38;26.67;;;8.13;;
4174;SDS011;2101;48.290;14.382;2023-03-01T19:50:05;21.47;;;5.93;;
4174;SDS011;2101;48.290;14.382;2023-03-01T19:52:32;30.57;;;7.47;;
4174;SDS011;2101;48.290;14.382;2023-03-01T19:54:58;26.90;;;6.50;;
4174;SDS011;2101;48.290;14.382;2023-03-01T20:00:01;24.17;;;6.40;;
4174;SDS011;2101;48.290;14.382;2023-03-01T20:05:03;23.87;;;6.93;;
4174;SDS011;2101;48.290;14.382;2023-03-01T20:07:33;22.87;;;6.67;;
4174;SDS011;2101;48.290;14.382;2023-03-01T20:10:01;23.30;;;6.40;;
4174;SDS011;2101;48.290;14.382;2023-03-01T20:12:28;25.67;;;7.13;;
4174;SDS011;2101;48.290;14.382;2023-03-01T20:14:54;23.40;;;6.20;;
4174;SDS011;2101;48.290;14.382;2023-03-01T20:17:21;26.53;;;5.90;;
4174;SDS011;2101;48.290;14.382;2023-03-01T20:19:51;22.40;;;6.17;;
4174;SDS011;2101;48.290;14.382;2023-03-01T20:24:53;19.47;;;5.80;;
4174;SDS011;2101;48.290;14.382;2023-03-01T20:32:38;23.03;;;6.27;;
4174;SDS011;2101;48.290;14.382;2023-03-01T20:45:36;24.30;;;6.63;;
4174;SDS011;2101;48.290;14.382;2023-03-01T20:48:06;24.20;;;6.53;;
4174;SDS011;2101;48.290;14.382;2023-03-01T20:50:32;27.63;;;7.03;;
4174;SDS011;2101;48.290;14.382;2023-03-01T20:52:58;25.53;;;7.40;;
4174;SDS011;2101;48.290;14.382;2023-03-01T20:55:31;28.33;;;6.60;;
4174;SDS011;2101;48.290;14.382;2023-03-01T20:58:01;30.50;;;7.73;;
4174;SDS011;2101;48.290;14.382;2023-03-01T21:08:16;24.07;;;6.40;;
4174;SDS011;2101;48.290;14.382;2023-03-01T21:16:11;21.67;;;5.17;;
4174;SDS011;2101;48.290;14.382;2023-03-01T21:18:40;23.83;;;6.27;;
4174;SDS011;2101;48.290;14.382;2023-03-01T21:21:10;21.40;;;5.47;;
4174;SDS011;2101;48.290;14.382;2023-03-01T21:23:37;24.03;;;5.97;;
4174;SDS011;2101;48.290;14.382;2023-03-01T21:26:05;19.20;;;5.27;;
4174;SDS011;2101;48.290;14.382;2023-03-01T21:28:32;22.10;;;5.50;;
4174;SDS011;2101;48.290;14.382;2023-03-01T21:31:06;23.70;;;6.00;;
4174;SDS011;2101;48.290;14.382;2023-03-01T21:33:33;18.10;;;5.13;;
4174;SDS011;2101;48.290;14.382;2023-03-01T21:36:00;21.77;;;5.67;;
4174;SDS011;2101;48.290;14.382;2023-03-01T21:38:34;19.27;;;4.90;;
4174;SDS011;2101;48.290;14.382;2023-03-01T21:41:09;27.47;;;5.50;;
4174;SDS011;2101;48.290;14.382;2023-03-01T21:43:37;16.40;;;3.47;;
4174;SDS011;2101;48.290;14.382;2023-03-01T21:46:05;17.27;;;3.80;;
4174;SDS011;2101;48.290;14.382;2023-03-01T21:48:31;30.10;;;5.17;;
4174;SDS011;2101;48.290;14.382;2023-03-01T21:50:58;34.33;;;6.03;;
4174;SDS011;2101;48.290;14.382;2023-03-01T21:53:27;20.50;;;4.97;;
4174;SDS011;2101;48.290;14.382;2023-03-01T21:55:54;17.70;;;3.00;;
4174;SDS011;2101;48.290;14.382;2023-03-01T21:58:22;16.47;;;4.10;;
4174;SDS011;2101;48.290;14.382;2023-03-01T22:00:49;24.33;;;5.07;;
4174;SDS011;2101;48.290;14.382;2023-03-01T22:03:16;27.50;;;4.47;;
4174;SDS011;2101;48.290;14.382;2023-03-01T22:05:42;20.30;;;4.90;;
4174;SDS011;2101;48.290;14.382;2023-03-01T22:08:18;20.37;;;4.17;;
4174;SDS011;2101;48.290;14.382;2023-03-01T22:10:45;23.13;;;5.43;;
4174;SDS011;2101;48.290;14.382;2023-03-01T22:13:16;20.00;;;5.47;;
4174;SDS011;2101;48.290;14.382;2023-03-01T22:15:43;20.07;;;4.70;;
4174;SDS011;2101;48.290;14.382;2023-03-01T22:18:10;16.80;;;4.33;;
4174;SDS011;2101;48.290;14.382;2023-03-01T22:20:37;17.87;;;4.87;;
4174;SDS011;2101;48.290;14.382;2023-03-01T22:23:04;19.57;;;4.67;;
4174;SDS011;2101;48.290;14.382;2023-03-01T22:25:38;21.97;;;6.63;;
4174;SDS011;2101;48.290;14.382;2023-03-01T22:28:04;19.80;;;3.97;;
4174;SDS011;2101;48.290;14.382;2023-03-01T22:30:31;25.63;;;4.87;;
4174;SDS011;2101;48.290;14.382;2023-03-01T22:32:57;16.47;;;4.17;;
4174;SDS011;2101;48.290;14.382;2023-03-01T22:35:23;24.80;;;5.27;;
4174;SDS011;2101;48.290;14.382;2023-03-01T22:37:50;22.87;;;5.07;;
4174;SDS011;2101;48.290;14.382;2023-03-01T22:40:16;16.43;;;3.83;;
4174;SDS011;2101;48.290;14.382;2023-03-01T22:42:43;21.27;;;5.33;;
4174;SDS011;2101;48.290;14.382;2023-03-01T22:45:09;22.60;;;4.80;;
4174;SDS011;2101;48.290;14.382;2023-03-01T22:47:37;21.77;;;5.07;;
4174;SDS011;2101;48.290;14.382;2023-03-01T22:50:04;23.17;;;5.43;;
4174;SDS011;2101;48.290;14.382;2023-03-01T22:52:31;24.60;;;5.87;;
4174;SDS011;2101;48.290;14.382;2023-03-01T22:54:58;21.03;;;5.60;;
4174;SDS011;2101;48.290;14.382;2023-03-01T22:57:44;24.60;;;5.73;;
4174;SDS011;2101;48.290;14.382;2023-03-01T23:00:10;20.10;;;5.77;;
4174;SDS011;2101;48.290;14.382;2023-03-01T23:02:40;20.00;;;5.40;;
4174;SDS011;2101;48.290;14.382;2023-03-01T23:05:09;26.30;;;6.10;;
4174;SDS011;2101;48.290;14.382;2023-03-01T23:07:37;20.23;;;5.00;;
4174;SDS011;2101;48.290;14.382;2023-03-01T23:10:03;22.73;;;6.27;;
4174;SDS011;2101;48.290;14.382;2023-03-01T23:12:32;20.20;;;5.43;;
4174;SDS011;2101;48.290;14.382;2023-03-01T23:14:58;21.17;;;5.70;;
4174;SDS011;2101;48.290;14.382;2023-03-01T23:17:24;20.27;;;5.20;;
4174;SDS011;2101;48.290;14.382;2023-03-01T23:19:51;29.90;;;5.63;;
4174;SDS011;2101;48.290;14.382;2023-03-01T23:22:17;20.17;;;5.20;;
4174;SDS011;2101;48.290;14.382;2023-03-01T23:24:44;18.73;;;5.10;;
4174;SDS011;2101;48.290;14.382;2023-03-01T23:27:10;25.10;;;5.40;;
4174;SDS011;2101;48.290;14.382;2023-03-01T23:29:40;19.97;;;4.70;;
4174;SDS011;2101;48.290;14.382;2023-03-01T23:32:07;22.20;;;6.27;;
4174;SDS011;2101;48.290;14.382;2023-03-01T23:34:33;24.53;;;6.07;;
4174;SDS011;2101;48.290;14.382;2023-03-01T23:36:59;20.77;;;5.20;;
4174;SDS011;2101;48.290;14.382;2023-03-01T23:39:26;20.90;;;5.80;;
4174;SDS011;2101;48.290;14.382;2023-03-01T23:41:54;22.43;;;5.87;;
4174;SDS011;2101;48.290;14.382;2023-03-01T23:44:21;22.27;;;5.63;;
4174;SDS011;2101;48.290;14.382;2023-03-01T23:46:48;24.10;;;5.90;;
4174;SDS011;2101;48.290;14.382;2023-03-01T23:49:15;24.33;;;5.47;;
4174;SDS011;2101;48.290;14.382;2023-03-01T23:51:42;27.10;;;6.20;;
4174;SDS011;2101;48.290;14.382;2023-03-01T23:54:10;33.33;;;7.30;;
4174;SDS011;2101;48.290;14.382;2023-03-01T23:56:37;25.40;;;6.57;;
4174;SDS011;2101;48.290;14.382;2023-03-01T23:59:05;25.60;;;6.13;;
